Time;durP1;ratioP1;P1;durP2;ratioP2;P2;SDS_P1;SDS_P2;PMS_P1;PMS_P2;Temp;Humidity;BMP_temperature;BMP_pressure;BME280_temperature;BME280_humidity;BME280_pressure;Samples;Min_cycle;Max_cycle;Signal;HPM_P1;HPM_P2
2023/10/11 00:03:16;;;;;;;22.92;21.60;;;;;;;;;;4999838;28;20661;-63
2023/10/11 00:05:42;;;;;;;22.90;21.55;;;;;;;;;;5000347;28;20029;-63
2023/10/11 00:08:13;;;;;;;22.77;21.42;;;;;;;;;;5002072;28;20053;-64
2023/10/11 00:10:44;;;;;;;23.40;22.05;;;;;;;;;;5002077;28;20407;-63
2023/10/11 00:13:11;;;;;;;22.00;20.77;;;;;;;;;;5003005;28;20336;-63
2023/10/11 00:15:37;;;;;;;23.80;22.50;;;;;;;;;;5002990;28;20048;-63
2023/10/11 00:18:03;;;;;;;24.50;23.00;;;;;;;;;;4998832;28;20116;-63
2023/10/11 00:20:31;;;;;;;26.23;24.33;;;;;;;;;;5000257;28;20068;-63
2023/10/11 00:22:59;;;;;;;22.85;21.50;;;;;;;;;;5000076;28;20475;-63
2023/10/11 00:25:24;;;;;;;25.13;23.55;;;;;;;;;;4985513;28;20455;-63
2023/10/11 00:27:58;;;;;;;23.55;22.05;;;;;;;;;;4985328;28;20056;-63
2023/10/11 00:30:24;;;;;;;24.30;22.33;;;;;;;;;;4999539;28;20034;-63
2023/10/11 00:32:52;;;;;;;22.20;20.95;;;;;;;;;;5002185;28;20034;-64
2023/10/11 00:35:18;;;;;;;26.52;23.90;;;;;;;;;;5001379;28;20100;-63
2023/10/11 00:37:45;;;;;;;23.67;22.08;;;;;;;;;;4983472;28;20034;-63
2023/10/11 00:40:14;;;;;;;21.50;20.30;;;;;;;;;;5003050;28;20116;-63
2023/10/11 00:42:40;;;;;;;23.20;21.67;;;;;;;;;;5001040;28;20142;-64
2023/10/11 00:45:08;;;;;;;22.80;21.00;;;;;;;;;;5000558;28;20436;-63
2023/10/11 00:47:40;;;;;;;22.80;21.38;;;;;;;;;;5005748;28;20045;-63
2023/10/11 00:50:14;;;;;;;22.48;20.75;;;;;;;;;;5000324;28;20052;-63
2023/10/11 00:52:43;;;;;;;21.60;19.27;;;;;;;;;;5000689;28;20044;-63
2023/10/11 00:55:19;;;;;;;18.67;17.58;;;;;;;;;;4980302;28;20060;-63
2023/10/11 00:57:47;;;;;;;19.75;18.25;;;;;;;;;;5001360;28;20597;-63
2023/10/11 01:00:16;;;;;;;19.98;18.77;;;;;;;;;;4984497;28;20103;-63
2023/10/11 01:02:47;;;;;;;18.50;17.40;;;;;;;;;;5000629;28;20049;-63
2023/10/11 01:05:14;;;;;;;19.40;18.23;;;;;;;;;;5001293;28;20049;-63
2023/10/11 01:07:39;;;;;;;18.70;17.50;;;;;;;;;;4998812;28;20061;-63
2023/10/11 01:10:07;;;;;;;19.52;17.92;;;;;;;;;;5002356;28;20068;-63
2023/10/11 01:12:32;;;;;;;18.27;17.10;;;;;;;;;;5003174;28;20120;-63
2023/10/11 01:14:58;;;;;;;17.80;16.65;;;;;;;;;;4986474;28;20650;-64
2023/10/11 01:17:31;;;;;;;19.77;18.13;;;;;;;;;;5001890;28;20033;-63
2023/10/11 01:19:59;;;;;;;16.40;15.35;;;;;;;;;;5003429;28;20050;-63
2023/10/11 01:22:27;;;;;;;18.25;17.17;;;;;;;;;;4970688;28;20638;-63
2023/10/11 01:24:54;;;;;;;16.50;15.57;;;;;;;;;;5000775;28;20044;-63
2023/10/11 01:27:30;;;;;;;19.38;17.90;;;;;;;;;;5002245;28;20033;-63
2023/10/11 01:29:57;;;;;;;18.70;17.45;;;;;;;;;;5002216;28;20123;-63
2023/10/11 01:32:23;;;;;;;20.65;18.80;;;;;;;;;;5000483;28;20037;-63
2023/10/11 01:34:48;;;;;;;18.75;17.55;;;;;;;;;;5002096;28;20032;-63
2023/10/11 01:37:14;;;;;;;19.48;18.27;;;;;;;;;;5001980;28;20022;-63
2023/10/11 01:39:39;;;;;;;20.17;19.05;;;;;;;;;;5000293;28;20049;-63
2023/10/11 01:42:05;;;;;;;19.45;18.35;;;;;;;;;;5001345;28;20030;-63
2023/10/11 01:44:33;;;;;;;21.10;19.60;;;;;;;;;;5000933;28;20034;-63
2023/10/11 01:47:00;;;;;;;20.27;19.05;;;;;;;;;;4986556;28;20045;-63
2023/10/11 01:49:25;;;;;;;21.30;20.08;;;;;;;;;;4999955;28;20033;-68
2023/10/11 01:51:52;;;;;;;23.40;21.73;;;;;;;;;;4999277;28;20069;-68
2023/10/11 01:54:22;;;;;;;22.77;21.33;;;;;;;;;;5001385;28;20109;-68
2023/10/11 01:56:47;;;;;;;21.10;19.88;;;;;;;;;;4998416;28;20088;-68
2023/10/11 01:59:13;;;;;;;22.58;21.17;;;;;;;;;;4984632;28;20489;-68
2023/10/11 02:01:39;;;;;;;25.35;23.65;;;;;;;;;;5005528;28;20050;-68
2023/10/11 02:04:10;;;;;;;25.92;24.48;;;;;;;;;;5007143;28;20367;-69
2023/10/11 02:06:38;;;;;;;24.75;23.20;;;;;;;;;;5007275;28;20022;-68
2023/10/11 02:09:04;;;;;;;24.67;23.30;;;;;;;;;;5003885;28;20029;-67
2023/10/11 02:11:29;;;;;;;25.48;23.95;;;;;;;;;;5002794;28;20045;-68
2023/10/11 02:13:59;;;;;;;27.15;25.35;;;;;;;;;;5005515;28;20044;-67
2023/10/11 02:16:31;;;;;;;27.20;25.65;;;;;;;;;;5001953;28;20044;-68
2023/10/11 02:18:59;;;;;;;28.23;26.60;;;;;;;;;;5004171;28;20034;-69
2023/10/11 02:21:31;;;;;;;27.13;25.65;;;;;;;;;;5005822;28;20172;-69
2023/10/11 02:23:58;;;;;;;28.55;26.42;;;;;;;;;;5006381;28;20030;-70
2023/10/11 02:26:32;;;;;;;28.10;26.55;;;;;;;;;;5005639;28;20042;-69
2023/10/11 02:29:03;;;;;;;28.65;26.98;;;;;;;;;;5004996;28;20045;-69
2023/10/11 02:31:33;;;;;;;23.85;22.52;;;;;;;;;;5005327;28;20038;-70
2023/10/11 02:34:12;;;;;;;28.63;25.20;;;;;;;;;;4986191;28;20113;-65
2023/10/11 02:36:42;;;;;;;28.48;26.85;;;;;;;;;;4988434;28;20026;-65
2023/10/11 02:39:07;;;;;;;27.98;26.40;;;;;;;;;;5002918;28;20120;-65
2023/10/11 02:41:37;;;;;;;26.23;24.73;;;;;;;;;;5005538;28;20457;-65
2023/10/11 02:44:02;;;;;;;25.70;24.20;;;;;;;;;;5005299;28;20048;-65
2023/10/11 02:46:28;;;;;;;25.80;24.30;;;;;;;;;;5007013;28;20042;-65
2023/10/11 02:49:06;;;;;;;27.98;26.23;;;;;;;;;;5005745;28;20349;-65
2023/10/11 02:51:33;;;;;;;27.80;26.27;;;;;;;;;;5003791;28;20042;-65
2023/10/11 02:54:04;;;;;;;25.15;23.75;;;;;;;;;;5003199;28;20080;-65
2023/10/11 02:56:46;;;;;;;26.38;24.90;;;;;;;;;;5002342;28;20655;-65
2023/10/11 02:59:15;;;;;;;26.77;25.30;;;;;;;;;;5006226;28;20030;-65
2023/10/11 03:01:41;;;;;;;25.50;24.10;;;;;;;;;;5003265;28;20061;-65
2023/10/11 03:04:08;;;;;;;27.52;26.02;;;;;;;;;;4989732;28;20653;-65
2023/10/11 03:06:35;;;;;;;26.42;24.65;;;;;;;;;;5003079;28;20061;-64
2023/10/11 03:09:01;;;;;;;25.38;23.98;;;;;;;;;;4985293;28;20097;-65
2023/10/11 03:11:29;;;;;;;26.17;24.20;;;;;;;;;;5002866;28;20553;-65
2023/10/11 03:13:55;;;;;;;25.80;24.02;;;;;;;;;;5003290;28;20057;-65
2023/10/11 03:16:23;;;;;;;26.95;25.35;;;;;;;;;;5000221;28;20478;-65
2023/10/11 03:18:51;;;;;;;26.35;24.65;;;;;;;;;;5003703;28;20042;-68
2023/10/11 03:21:19;;;;;;;26.20;24.42;;;;;;;;;;5003031;28;20034;-70
2023/10/11 03:23:47;;;;;;;25.10;23.73;;;;;;;;;;5004678;28;20079;-69
2023/10/11 03:26:39;;;;;;;24.38;22.98;;;;;;;;;;4999366;28;20122;-64
2023/10/11 03:29:04;;;;;;;23.08;21.77;;;;;;;;;;5004470;28;20054;-65
2023/10/11 03:31:31;;;;;;;26.58;25.00;;;;;;;;;;5003479;28;20049;-64
2023/10/11 03:34:10;;;;;;;22.70;21.40;;;;;;;;;;5005942;28;20040;-65
2023/10/11 03:36:59;;;;;;;22.75;21.42;;;;;;;;;;5004638;28;20184;-65
2023/10/11 03:39:39;;;;;;;23.20;21.88;;;;;;;;;;5003731;28;20060;-65
2023/10/11 03:42:14;;;;;;;22.35;20.88;;;;;;;;;;5006326;28;20093;-65
2023/10/11 03:44:45;;;;;;;23.17;21.63;;;;;;;;;;5005107;28;20041;-65
2023/10/11 03:47:14;;;;;;;24.08;22.30;;;;;;;;;;5001739;28;20039;-65
2023/10/11 03:52:18;;;;;;;23.10;21.65;;;;;;;;;;5000679;28;20128;-65
2023/10/11 03:54:45;;;;;;;24.55;22.85;;;;;;;;;;5003647;28;20044;-65
2023/10/11 03:57:11;;;;;;;23.65;22.25;;;;;;;;;;5005219;28;20041;-65
2023/10/11 03:59:47;;;;;;;23.02;21.70;;;;;;;;;;5006060;28;20041;-65
2023/10/11 04:02:12;;;;;;;23.13;21.75;;;;;;;;;;5005566;28;20049;-65
2023/10/11 04:04:42;;;;;;;23.98;22.42;;;;;;;;;;5006006;28;20033;-65
2023/10/11 04:07:12;;;;;;;24.10;22.60;;;;;;;;;;5003853;28;20129;-65
2023/10/11 04:09:39;;;;;;;25.25;23.75;;;;;;;;;;5003526;28;20037;-65
2023/10/11 04:12:05;;;;;;;23.45;22.05;;;;;;;;;;4983303;28;20694;-65
2023/10/11 04:14:44;;;;;;;22.65;21.35;;;;;;;;;;5001907;28;20041;-65
2023/10/11 04:19:49;;;;;;;24.92;23.40;;;;;;;;;;5003210;28;20113;-65
2023/10/11 04:22:23;;;;;;;24.52;23.15;;;;;;;;;;5001524;28;20084;-65
2023/10/11 04:24:53;;;;;;;23.40;22.10;;;;;;;;;;4998277;28;20077;-65
2023/10/11 04:29:50;;;;;;;22.52;21.10;;;;;;;;;;4998165;28;20116;-64
2023/10/11 04:35:21;;;;;;;24.05;22.33;;;;;;;;;;5001832;28;20030;-64
2023/10/11 04:38:01;;;;;;;21.83;20.35;;;;;;;;;;4986797;28;20379;-65
2023/10/11 04:43:05;;;;;;;22.60;21.20;;;;;;;;;;5002711;28;20510;-65
2023/10/11 04:45:43;;;;;;;23.13;21.50;;;;;;;;;;4989041;28;20065;-64
2023/10/11 04:48:09;;;;;;;22.20;20.80;;;;;;;;;;4987041;28;20099;-64
2023/10/11 04:50:41;;;;;;;25.38;23.88;;;;;;;;;;4997605;28;20038;-65
2023/10/11 04:53:06;;;;;;;22.77;21.40;;;;;;;;;;5000992;28;20196;-64
2023/10/11 04:55:35;;;;;;;23.60;22.20;;;;;;;;;;5002998;28;20046;-65
2023/10/11 04:58:08;;;;;;;23.92;22.50;;;;;;;;;;5001948;28;20083;-64
2023/10/11 05:00:44;;;;;;;23.25;21.20;;;;;;;;;;4988088;28;20040;-65
2023/10/11 05:03:10;;;;;;;22.85;21.45;;;;;;;;;;5001889;28;20463;-65
2023/10/11 05:05:36;;;;;;;23.60;22.13;;;;;;;;;;5000644;28;20038;-64
2023/10/11 05:08:04;;;;;;;24.92;23.40;;;;;;;;;;4998456;28;20810;-65
2023/10/11 05:10:42;;;;;;;24.63;22.95;;;;;;;;;;4986464;28;20030;-65
2023/10/11 05:13:13;;;;;;;23.08;21.67;;;;;;;;;;4999517;28;20571;-65
2023/10/11 05:15:47;;;;;;;25.83;23.73;;;;;;;;;;5000046;28;20038;-65
2023/10/11 05:18:18;;;;;;;25.13;23.50;;;;;;;;;;5001734;28;20061;-65
2023/10/11 05:20:57;;;;;;;23.88;22.42;;;;;;;;;;5001342;28;20092;-64
2023/10/11 05:23:25;;;;;;;23.15;21.85;;;;;;;;;;4999793;28;20045;-65
2023/10/11 05:25:58;;;;;;;22.73;21.38;;;;;;;;;;4984828;28;20053;-64
2023/10/11 05:31:44;;;;;;;23.73;22.42;;;;;;;;;;5002139;28;20073;-64
2023/10/11 05:33:57;;;;;;;23.25;21.95;;;;;;;;;;4991536;28;20060;-65
2023/10/11 05:52:55;;;;;;;25.50;23.88;;;;;;;;;;5002969;28;20115;-65
2023/10/11 05:55:24;;;;;;;23.58;22.13;;;;;;;;;;4987592;28;20954;-65
2023/10/11 05:57:50;;;;;;;24.85;23.23;;;;;;;;;;5005971;28;20038;-64
2023/10/11 06:00:23;;;;;;;24.35;23.02;;;;;;;;;;5001262;28;20460;-65
2023/10/11 06:02:53;;;;;;;25.02;23.50;;;;;;;;;;5003798;28;20041;-65
2023/10/11 06:05:24;;;;;;;24.45;23.05;;;;;;;;;;5001571;28;20376;-65
2023/10/11 06:08:00;;;;;;;25.13;23.00;;;;;;;;;;4988277;28;20368;-65
2023/10/11 06:10:41;;;;;;;22.88;21.65;;;;;;;;;;4999536;28;20029;-66
2023/10/11 06:13:16;;;;;;;23.92;22.50;;;;;;;;;;5005586;28;20095;-65
2023/10/11 06:15:58;;;;;;;22.08;20.63;;;;;;;;;;5001772;28;20224;-65
2023/10/11 06:19:16;;;;;;;23.13;21.77;;;;;;;;;;5003848;28;20075;-65
2023/10/11 06:21:30;;;;;;;22.27;21.00;;;;;;;;;;5003201;28;20049;-65
2023/10/11 06:23:57;;;;;;;23.83;22.52;;;;;;;;;;5003602;28;20034;-64
2023/10/11 06:29:10;;;;;;;23.25;21.58;;;;;;;;;;5003765;28;20040;-65
2023/10/11 06:31:39;;;;;;;22.90;21.60;;;;;;;;;;5004740;28;20078;-64
2023/10/11 06:34:23;;;;;;;23.00;21.70;;;;;;;;;;5003889;28;20022;-65
2023/10/11 06:36:49;;;;;;;22.58;21.25;;;;;;;;;;5003126;28;20041;-65
2023/10/11 06:39:34;;;;;;;22.73;21.35;;;;;;;;;;5002110;28;20041;-64
2023/10/11 06:42:21;;;;;;;23.75;22.40;;;;;;;;;;5002324;28;20037;-65
2023/10/11 06:44:59;;;;;;;23.23;21.77;;;;;;;;;;5003625;28;20029;-65
2023/10/11 06:47:35;;;;;;;23.55;22.15;;;;;;;;;;5005261;28;20042;-65
2023/10/11 06:50:11;;;;;;;22.67;21.27;;;;;;;;;;5001990;28;20402;-65
2023/10/11 06:52:45;;;;;;;38.53;22.95;;;;;;;;;;5005257;28;20557;-65
2023/10/11 06:55:18;;;;;;;22.42;21.13;;;;;;;;;;4991958;28;20036;-65
2023/10/11 06:57:50;;;;;;;21.65;20.45;;;;;;;;;;5001111;28;20326;-65
2023/10/11 07:00:53;;;;;;;24.58;22.73;;;;;;;;;;5002085;28;20281;-64
2023/10/11 07:03:26;;;;;;;23.73;22.23;;;;;;;;;;5002854;28;20414;-64
2023/10/11 07:05:59;;;;;;;25.42;22.67;;;;;;;;;;4986091;28;20315;-65
2023/10/11 07:08:48;;;;;;;24.80;23.00;;;;;;;;;;5003775;28;20046;-64
2023/10/11 07:11:36;;;;;;;21.23;20.02;;;;;;;;;;5002656;28;20033;-64
2023/10/11 07:14:05;;;;;;;20.95;19.65;;;;;;;;;;5000154;28;20942;-64
2023/10/11 07:16:31;;;;;;;20.90;19.70;;;;;;;;;;5000905;28;20093;-64
2023/10/11 07:18:58;;;;;;;20.48;19.15;;;;;;;;;;4988006;28;20185;-64
2023/10/11 07:21:41;;;;;;;20.73;19.52;;;;;;;;;;4981358;28;20038;-64
2023/10/11 07:24:19;;;;;;;18.80;17.70;;;;;;;;;;5003675;28;20113;-65
2023/10/11 07:29:16;;;;;;;18.90;17.40;;;;;;;;;;5004139;28;20148;-64
2023/10/11 07:31:48;;;;;;;18.75;17.55;;;;;;;;;;5004058;28;20035;-65
2023/10/11 07:34:20;;;;;;;19.63;18.13;;;;;;;;;;5004399;28;20403;-64
2023/10/11 07:36:50;;;;;;;18.88;17.38;;;;;;;;;;5002790;28;20033;-64
2023/10/11 07:39:25;;;;;;;18.33;17.15;;;;;;;;;;5003266;28;20393;-64
2023/10/11 07:42:08;;;;;;;17.50;16.10;;;;;;;;;;5003853;28;20414;-62
2023/10/11 07:44:37;;;;;;;16.70;15.68;;;;;;;;;;5001348;28;20033;-62
2023/10/11 07:47:08;;;;;;;19.35;18.15;;;;;;;;;;5002821;28;20037;-64
2023/10/11 07:49:39;;;;;;;18.05;16.92;;;;;;;;;;5001133;28;20456;-65
2023/10/11 07:52:08;;;;;;;17.40;16.30;;;;;;;;;;4999971;28;20558;-65
2023/10/11 07:54:39;;;;;;;20.02;18.83;;;;;;;;;;5000713;28;20033;-64
2023/10/11 07:57:12;;;;;;;20.02;18.83;;;;;;;;;;5002634;28;20033;-64
2023/10/11 07:59:39;;;;;;;20.73;19.00;;;;;;;;;;5002959;28;20049;-64
2023/10/11 08:02:09;;;;;;;20.05;18.63;;;;;;;;;;4986739;28;20095;-65
2023/10/11 08:04:44;;;;;;;19.77;18.58;;;;;;;;;;5004448;28;20037;-64
2023/10/11 08:07:12;;;;;;;19.90;18.60;;;;;;;;;;5002720;28;20037;-65
2023/10/11 08:09:47;;;;;;;20.27;19.08;;;;;;;;;;5003797;28;20038;-64
2023/10/11 08:12:16;;;;;;;19.02;17.83;;;;;;;;;;5005302;28;20137;-63
2023/10/11 08:14:45;;;;;;;18.17;16.95;;;;;;;;;;5003599;28;20041;-64
2023/10/11 08:17:19;;;;;;;18.65;17.48;;;;;;;;;;5001870;28;20030;-64
2023/10/11 08:19:47;;;;;;;16.63;15.48;;;;;;;;;;4987331;28;20029;-64
2023/10/11 08:22:16;;;;;;;18.13;17.02;;;;;;;;;;5002865;28;20104;-63
2023/10/11 08:24:56;;;;;;;20.38;19.10;;;;;;;;;;4999946;28;20048;-63
2023/10/11 08:27:28;;;;;;;20.40;18.92;;;;;;;;;;5003186;28;20034;-64
2023/10/11 08:30:05;;;;;;;19.05;17.90;;;;;;;;;;5000404;28;20045;-64
2023/10/11 08:32:33;;;;;;;20.58;19.38;;;;;;;;;;5003295;28;20038;-64
2023/10/11 08:34:58;;;;;;;21.05;19.83;;;;;;;;;;4997934;28;20464;-64
2023/10/11 08:37:23;;;;;;;23.40;21.58;;;;;;;;;;5002871;28;20405;-64
2023/10/11 08:39:50;;;;;;;24.42;23.08;;;;;;;;;;4982485;28;20104;-64
2023/10/11 08:42:16;;;;;;;27.77;25.98;;;;;;;;;;4983524;28;20914;-64
2023/10/11 08:44:45;;;;;;;28.67;26.88;;;;;;;;;;5003151;28;20136;-64
2023/10/11 08:47:15;;;;;;;32.03;30.23;;;;;;;;;;5003414;28;20030;-64
2023/10/11 08:49:51;;;;;;;30.63;28.98;;;;;;;;;;5002099;28;20398;-64
2023/10/11 08:52:29;;;;;;;35.20;33.30;;;;;;;;;;4982778;28;20069;-64
2023/10/11 08:54:55;;;;;;;31.75;30.05;;;;;;;;;;5002938;28;20037;-64
2023/10/11 08:57:31;;;;;;;33.58;31.33;;;;;;;;;;5001234;28;20171;-64
2023/10/11 08:59:57;;;;;;;32.75;30.85;;;;;;;;;;4999846;28;20042;-64
2023/10/11 09:02:33;;;;;;;32.38;30.63;;;;;;;;;;5000173;28;20049;-64
2023/10/11 09:05:07;;;;;;;31.35;29.50;;;;;;;;;;5002394;28;20125;-64
2023/10/11 09:07:51;;;;;;;32.95;31.15;;;;;;;;;;5001404;28;20037;-64
2023/10/11 09:10:25;;;;;;;30.13;27.40;;;;;;;;;;5002555;28;20100;-64
2023/10/11 09:12:56;;;;;;;28.25;26.75;;;;;;;;;;5000980;28;20038;-64
2023/10/11 09:15:23;;;;;;;28.73;27.13;;;;;;;;;;5002626;28;20038;-64
2023/10/11 09:17:50;;;;;;;28.73;27.20;;;;;;;;;;4986541;28;20141;-64
2023/10/11 09:20:16;;;;;;;30.77;29.05;;;;;;;;;;5002288;28;20029;-64
2023/10/11 09:22:47;;;;;;;30.17;28.55;;;;;;;;;;4986045;28;20446;-64
2023/10/11 09:25:21;;;;;;;32.28;30.42;;;;;;;;;;5000602;28;20534;-64
2023/10/11 09:27:48;;;;;;;31.50;29.80;;;;;;;;;;5000545;28;20123;-65
2023/10/11 09:30:21;;;;;;;31.92;29.80;;;;;;;;;;5001232;28;20034;-64
2023/10/11 09:32:59;;;;;;;35.33;33.42;;;;;;;;;;5005189;28;20042;-65
2023/10/11 09:35:27;;;;;;;31.65;29.95;;;;;;;;;;5004154;28;20028;-63
2023/10/11 09:37:56;;;;;;;38.50;36.35;;;;;;;;;;5002298;28;21347;-62
2023/10/11 09:40:34;;;;;;;35.03;33.13;;;;;;;;;;5003565;28;20041;-64
2023/10/11 09:43:00;;;;;;;31.25;29.55;;;;;;;;;;4986532;28;20338;-63
2023/10/11 09:45:41;;;;;;;30.27;28.67;;;;;;;;;;5000795;28;20033;-63
2023/10/11 09:48:12;;;;;;;32.13;30.33;;;;;;;;;;5001098;28;20029;-63
2023/10/11 09:50:41;;;;;;;;;;;;;;;;;;5004957;28;20399;-63
2023/10/11 09:53:12;;;;;;;29.92;28.23;;;;;;;;;;4999169;28;19964;-63
2023/10/11 09:55:52;;;;;;;26.00;23.88;;;;;;;;;;5001740;28;20033;-64
2023/10/11 09:58:44;;;;;;;29.42;27.15;;;;;;;;;;5002335;28;20037;-63
2023/10/11 10:01:41;;;;;;;24.00;22.48;;;;;;;;;;5000179;28;20074;-64
2023/10/11 10:04:08;;;;;;;26.50;25.00;;;;;;;;;;4998698;28;20196;-64
2023/10/11 10:06:34;;;;;;;31.05;29.38;;;;;;;;;;5001209;28;20145;-63
2023/10/11 10:09:23;;;;;;;33.80;31.88;;;;;;;;;;5000950;28;20129;-63
2023/10/11 10:12:09;;;;;;;33.53;31.58;;;;;;;;;;5002232;28;20041;-64
2023/10/11 10:14:36;;;;;;;27.42;25.92;;;;;;;;;;5002847;28;20037;-64
2023/10/11 10:17:12;;;;;;;27.52;26.00;;;;;;;;;;5000257;28;20417;-63
2023/10/11 10:19:43;;;;;;;45.63;43.33;;;;;;;;;;5001868;28;20103;-63
2023/10/11 10:22:31;;;;;;;76.07;71.88;;;;;;;;;;5001865;28;20085;-63
2023/10/11 10:25:17;;;;;;;74.13;70.32;;;;;;;;;;4985638;28;20168;-63
2023/10/11 10:27:45;;;;;;;95.45;90.55;;;;;;;;;;4989014;28;20034;-63
2023/10/11 10:30:16;;;;;;;76.88;73.05;;;;;;;;;;5005439;28;20034;-63
2023/10/11 10:33:18;;;;;;;87.22;82.88;;;;;;;;;;5000903;28;20471;-64
2023/10/11 10:35:44;;;;;;;105.80;100.18;;;;;;;;;;5005181;28;20038;-64
2023/10/11 10:38:09;;;;;;;121.60;115.03;;;;;;;;;;5001570;28;20060;-63
2023/10/11 10:40:37;;;;;;;124.47;118.35;;;;;;;;;;4984644;28;20072;-64
2023/10/11 10:43:19;;;;;;;86.88;82.55;;;;;;;;;;5003436;28;20037;-63
2023/10/11 10:45:47;;;;;;;61.83;58.38;;;;;;;;;;4987297;28;20112;-63
2023/10/11 10:48:15;;;;;;;91.07;86.45;;;;;;;;;;5004434;28;20061;-63
2023/10/11 10:50:52;;;;;;;88.07;83.68;;;;;;;;;;5004795;28;20034;-63
2023/10/11 10:53:19;;;;;;;125.80;119.10;;;;;;;;;;4986984;28;20650;-63
2023/10/11 10:55:45;;;;;;;94.95;90.20;;;;;;;;;;5004998;28;20083;-63
2023/10/11 10:58:20;;;;;;;61.97;58.72;;;;;;;;;;4991991;28;20076;-63
2023/10/11 11:00:52;;;;;;;53.13;50.30;;;;;;;;;;5004009;28;20451;-63
2023/10/11 11:03:19;;;;;;;24.70;23.27;;;;;;;;;;5005606;28;20057;-63
2023/10/11 11:06:06;;;;;;;28.35;26.48;;;;;;;;;;5005408;28;20040;-63
2023/10/11 11:08:37;;;;;;;32.80;31.05;;;;;;;;;;5006441;28;20041;-63
2023/10/11 11:11:19;;;;;;;;;;;;;;;;;;4988578;28;20582;-63
2023/10/11 11:13:49;;;;;;;20.58;19.38;;;;;;;;;;5002261;28;19913;-63
2023/10/11 11:16:19;;;;;;;22.70;21.38;;;;;;;;;;5005722;28;20022;-63
2023/10/11 11:18:45;;;;;;;22.23;20.85;;;;;;;;;;5004691;28;20439;-63
2023/10/11 11:21:24;;;;;;;20.58;19.35;;;;;;;;;;5003813;28;20030;-63
2023/10/11 11:23:50;;;;;;;20.65;19.45;;;;;;;;;;5002458;28;20030;-63
2023/10/11 11:26:16;;;;;;;35.97;34.03;;;;;;;;;;5005957;28;20204;-63
2023/10/11 11:28:45;;;;;;;22.30;20.90;;;;;;;;;;5003379;28;20483;-63
2023/10/11 11:31:30;;;;;;;31.02;29.33;;;;;;;;;;5003015;28;20030;-63
2023/10/11 11:34:12;;;;;;;45.70;43.35;;;;;;;;;;4967605;28;20244;-63
2023/10/11 11:36:40;;;;;;;39.58;37.40;;;;;;;;;;5004486;28;20102;-63
2023/10/11 11:39:26;;;;;;;26.38;24.77;;;;;;;;;;5002589;28;20062;-63
2023/10/11 11:41:53;;;;;;;39.22;36.83;;;;;;;;;;4987518;28;20038;-63
2023/10/11 11:44:22;;;;;;;41.45;39.22;;;;;;;;;;4987180;28;20030;-63
2023/10/11 11:46:49;;;;;;;70.93;67.43;;;;;;;;;;5001083;28;20827;-63
2023/10/11 11:49:26;;;;;;;58.28;55.35;;;;;;;;;;5002503;28;20276;-63
2023/10/11 11:51:53;;;;;;;61.78;58.63;;;;;;;;;;5002132;28;20399;-64
2023/10/11 11:54:20;;;;;;;40.80;38.53;;;;;;;;;;4985016;28;20044;-63
2023/10/11 11:56:46;;;;;;;43.28;41.03;;;;;;;;;;4984680;28;20041;-63
2023/10/11 11:59:18;;;;;;;39.25;37.08;;;;;;;;;;4986933;28;20034;-63
2023/10/11 12:01:52;;;;;;;30.95;29.05;;;;;;;;;;4982601;28;20038;-64
2023/10/11 12:04:24;;;;;;;27.25;25.58;;;;;;;;;;4999488;28;20125;-63
2023/10/11 12:06:50;;;;;;;36.47;34.50;;;;;;;;;;4999435;28;20076;-63
2023/10/11 12:09:22;;;;;;;32.83;30.98;;;;;;;;;;5004350;28;20371;-63
2023/10/11 12:11:53;;;;;;;25.02;23.42;;;;;;;;;;5002203;28;20041;-64
2023/10/11 12:14:22;;;;;;;29.88;28.17;;;;;;;;;;5002317;28;20026;-63
2023/10/11 12:16:48;;;;;;;175.67;167.03;;;;;;;;;;5003122;28;20246;-63
2023/10/11 12:19:15;;;;;;;181.57;172.60;;;;;;;;;;5002479;28;20980;-64
2023/10/11 12:21:41;;;;;;;197.05;187.35;;;;;;;;;;5005875;28;20030;-66
2023/10/11 12:24:11;;;;;;;179.65;170.82;;;;;;;;;;4986596;28;20862;-64
2023/10/11 12:26:43;;;;;;;162.68;154.18;;;;;;;;;;4986054;28;20073;-63
2023/10/11 12:29:09;;;;;;;178.15;169.25;;;;;;;;;;5000448;28;20127;-64
2023/10/11 12:31:38;;;;;;;178.07;169.25;;;;;;;;;;5001925;28;20041;-63
2023/10/11 12:34:11;;;;;;;187.07;177.85;;;;;;;;;;5001911;28;20453;-64
2023/10/11 12:36:39;;;;;;;175.57;166.95;;;;;;;;;;5003266;28;20038;-63
2023/10/11 12:39:20;;;;;;;189.50;180.23;;;;;;;;;;4985528;28;20037;-64
2023/10/11 12:41:49;;;;;;;211.75;201.45;;;;;;;;;;5001899;28;20096;-64
2023/10/11 12:44:18;;;;;;;170.95;162.52;;;;;;;;;;5000388;28;20034;-64
2023/10/11 12:46:45;;;;;;;210.10;199.63;;;;;;;;;;5001892;28;20037;-64
2023/10/11 12:49:13;;;;;;;211.68;201.38;;;;;;;;;;4998365;28;20129;-64
2023/10/11 12:51:42;;;;;;;157.98;149.43;;;;;;;;;;5002234;28;20045;-64
2023/10/11 12:54:10;;;;;;;159.68;151.73;;;;;;;;;;4998483;28;20030;-64
2023/10/11 12:56:36;;;;;;;136.35;128.98;;;;;;;;;;5002134;28;20367;-64
2023/10/11 12:59:02;;;;;;;146.60;139.23;;;;;;;;;;4983870;28;20029;-64
2023/10/11 13:01:36;;;;;;;137.05;130.27;;;;;;;;;;5001078;28;20049;-64
2023/10/11 13:04:06;;;;;;;166.48;158.30;;;;;;;;;;4985729;28;20037;-64
2023/10/11 13:06:39;;;;;;;145.18;137.95;;;;;;;;;;4982854;28;20132;-63
2023/10/11 13:09:14;;;;;;;120.13;114.15;;;;;;;;;;4984479;28;20033;-63
2023/10/11 13:11:44;;;;;;;167.90;159.40;;;;;;;;;;5001856;28;20092;-64
2023/10/11 13:14:18;;;;;;;;;;;;;;;;;;5003906;28;20038;-63
2023/10/11 13:16:48;;;;;;;167.63;159.00;;;;;;;;;;4987249;28;19925;-64
2023/10/11 13:19:17;;;;;;;140.55;133.55;;;;;;;;;;4984431;28;20034;-64
2023/10/11 13:21:44;;;;;;;169.80;161.35;;;;;;;;;;4999685;28;20048;-64
2023/10/11 13:24:12;;;;;;;130.45;123.90;;;;;;;;;;5000167;28;20033;-64
2023/10/11 13:26:43;;;;;;;144.55;137.43;;;;;;;;;;5001165;28;20043;-64
2023/10/11 13:29:11;;;;;;;129.40;122.97;;;;;;;;;;4983160;28;20297;-64
2023/10/11 13:31:40;;;;;;;156.48;148.68;;;;;;;;;;4986330;28;20103;-64
2023/10/11 13:34:06;;;;;;;165.23;157.10;;;;;;;;;;5001713;28;20030;-64
2023/10/11 13:36:33;;;;;;;173.10;164.35;;;;;;;;;;4984806;28;20036;-64
2023/10/11 13:39:00;;;;;;;130.25;123.78;;;;;;;;;;4983445;28;20025;-64
2023/10/11 13:41:27;;;;;;;108.15;102.75;;;;;;;;;;5001774;28;20116;-64
2023/10/11 13:43:53;;;;;;;151.82;144.20;;;;;;;;;;5002775;28;20045;-64
2023/10/11 13:46:18;;;;;;;166.82;158.63;;;;;;;;;;5002415;28;20313;-64
2023/10/11 13:48:46;;;;;;;184.32;175.23;;;;;;;;;;5002746;28;20107;-64
2023/10/11 13:51:18;;;;;;;102.80;97.70;;;;;;;;;;5003267;28;20723;-64
2023/10/11 13:53:44;;;;;;;142.50;135.45;;;;;;;;;;4986490;28;20037;-65
2023/10/11 13:56:20;;;;;;;96.45;91.45;;;;;;;;;;4985925;28;20049;-64
2023/10/11 13:58:47;;;;;;;98.82;93.90;;;;;;;;;;5004742;28;20052;-64
2023/10/11 14:04:04;;;;;;;96.82;91.95;;;;;;;;;;5003354;28;20041;-65
2023/10/11 14:06:42;;;;;;;96.90;92.10;;;;;;;;;;5006257;28;20045;-63
2023/10/11 14:09:17;;;;;;;97.47;91.57;;;;;;;;;;5003953;28;20053;-64
2023/10/11 14:11:46;;;;;;;112.22;106.63;;;;;;;;;;5004635;28;20203;-64
2023/10/11 14:14:14;;;;;;;98.60;93.68;;;;;;;;;;5001376;28;20042;-64
2023/10/11 14:16:41;;;;;;;170.40;161.98;;;;;;;;;;5004862;28;20169;-65
2023/10/11 14:19:08;;;;;;;109.18;103.57;;;;;;;;;;5002652;28;20077;-65
2023/10/11 14:21:36;;;;;;;119.72;113.68;;;;;;;;;;5007976;28;20056;-65
2023/10/11 14:24:06;;;;;;;125.57;119.35;;;;;;;;;;5004266;28;20206;-65
2023/10/11 14:26:33;;;;;;;128.07;120.97;;;;;;;;;;4989938;28;20034;-65
2023/10/11 14:28:59;;;;;;;172.52;163.80;;;;;;;;;;5004837;28;20288;-65
2023/10/11 14:31:25;;;;;;;162.90;154.82;;;;;;;;;;5004155;28;20072;-65
2023/10/11 14:33:52;;;;;;;124.82;118.65;;;;;;;;;;5003839;28;20077;-65
2023/10/11 14:36:23;;;;;;;133.32;126.72;;;;;;;;;;5004418;28;20025;-65
2023/10/11 14:38:51;;;;;;;117.40;111.57;;;;;;;;;;4988551;28;20038;-64
2023/10/11 14:41:21;;;;;;;153.88;146.25;;;;;;;;;;4985600;28;20471;-65
2023/10/11 14:43:48;;;;;;;118.85;112.93;;;;;;;;;;5004747;28;20038;-65
2023/10/11 14:46:18;;;;;;;110.50;105.05;;;;;;;;;;5004237;28;20525;-65
2023/10/11 14:48:49;;;;;;;134.25;127.45;;;;;;;;;;5003597;28;20478;-65
2023/10/11 14:51:18;;;;;;;113.97;108.32;;;;;;;;;;5003331;28;20033;-65
2023/10/11 14:53:46;;;;;;;136.77;129.82;;;;;;;;;;5003224;28;20033;-64
2023/10/11 14:56:13;;;;;;;187.10;177.93;;;;;;;;;;5001363;28;20249;-64
2023/10/11 14:58:39;;;;;;;112.05;106.50;;;;;;;;;;5006525;28;20030;-66
2023/10/11 15:01:08;;;;;;;171.60;162.70;;;;;;;;;;5005347;28;20353;-65
2023/10/11 15:03:36;;;;;;;138.05;131.02;;;;;;;;;;5004626;28;20041;-66
2023/10/11 15:06:12;;;;;;;131.50;124.97;;;;;;;;;;5003791;28;20491;-65
2023/10/11 15:08:42;;;;;;;131.00;124.30;;;;;;;;;;4970347;28;20149;-65
2023/10/11 15:11:11;;;;;;;131.70;125.20;;;;;;;;;;5003568;28;20038;-63
2023/10/11 15:13:37;;;;;;;173.80;165.27;;;;;;;;;;5004447;28;20037;-64
2023/10/11 15:16:03;;;;;;;145.18;138.00;;;;;;;;;;5004138;28;20022;-63
2023/10/11 15:18:32;;;;;;;174.35;165.80;;;;;;;;;;5003587;28;20033;-64